createdAt,value
2023-05-06T00:02:26.268Z,96702.15
2023-05-06T00:04:56.958Z,96701.44
2023-05-06T00:07:27.317Z,96704.48
2023-05-06T00:10:01.861Z,96699.25
2023-05-06T00:12:33.397Z,96696.59
2023-05-06T00:15:04.170Z,96699.63
2023-05-06T00:17:35.471Z,96699.13
2023-05-06T00:20:09.301Z,96700.75
2023-05-06T00:22:40.513Z,96699.40
2023-05-06T00:25:12.909Z,96701.73
2023-05-06T00:27:43.634Z,96701.80
2023-05-06T00:30:16.312Z,96699.01
2023-05-06T00:32:47.628Z,96699.31
2023-05-06T00:35:18.935Z,96699.99
2023-05-06T00:37:56.754Z,96700.70
2023-05-06T00:40:28.112Z,96706.58
2023-05-06T00:42:59.310Z,96708.02
2023-05-06T00:45:31.132Z,96709.77
2023-05-06T00:48:01.921Z,96708.73
2023-05-06T00:50:33.054Z,96707.40
2023-05-06T00:53:05.010Z,96702.63
2023-05-06T00:55:35.791Z,96704.54
2023-05-06T00:58:06.107Z,96702.34
2023-05-06T01:00:38.595Z,96701.17
2023-05-06T01:03:10.589Z,96697.31
2023-05-06T01:05:50.359Z,96693.69
2023-05-06T01:08:24.674Z,96691.34
2023-05-06T01:10:56.416Z,96691.03
2023-05-06T01:13:31.707Z,96685.02
2023-05-06T01:16:04.275Z,96684.03
2023-05-06T01:18:35.780Z,96683.57
2023-05-06T01:21:09.857Z,96684.98
2023-05-06T01:23:57.968Z,96687.22
2023-05-06T01:26:29.084Z,96690.58
2023-05-06T01:29:01.711Z,96691.55
2023-05-06T01:31:42.905Z,96686.63
2023-05-06T01:34:17.415Z,96689.09
2023-05-06T01:36:58.683Z,96691.52
2023-05-06T01:39:32.819Z,96689.48
2023-05-06T01:42:04.493Z,96689.93
2023-05-06T01:44:35.917Z,96688.38
2023-05-06T01:47:07.487Z,96694.23
2023-05-06T01:49:37.865Z,96688.79
2023-05-06T01:52:10.384Z,96694.40
2023-05-06T01:54:41.849Z,96697.48
2023-05-06T01:57:15.061Z,96698.00
2023-05-06T01:59:45.512Z,96696.34
2023-05-06T02:02:17.778Z,96697.77
2023-05-06T02:04:52.508Z,96699.83
2023-05-06T02:07:24.374Z,96696.25
2023-05-06T02:09:55.120Z,96700.92
2023-05-06T02:12:26.996Z,96698.46
2023-05-06T02:15:01.132Z,96703.09
2023-05-06T02:17:32.111Z,96707.34
2023-05-06T02:20:02.346Z,96711.88
2023-05-06T02:22:32.727Z,96715.70
2023-05-06T02:25:03.891Z,96716.61
2023-05-06T02:27:34.562Z,96717.55
2023-05-06T02:30:08.168Z,96720.56
2023-05-06T02:32:40.244Z,96718.73
2023-05-06T02:35:12.940Z,96719.05
2023-05-06T02:37:47.903Z,96723.98
2023-05-06T02:40:18.602Z,96724.42
2023-05-06T02:42:48.874Z,96725.73
2023-05-06T02:45:19.283Z,96725.64
2023-05-06T02:47:49.676Z,96725.85
2023-05-06T02:50:20.203Z,96721.23
2023-05-06T02:52:50.696Z,96719.98
2023-05-06T02:55:21.342Z,96719.86
2023-05-06T02:57:52.480Z,96722.85
2023-05-06T03:00:23.340Z,96719.52
2023-05-06T03:02:53.991Z,96722.73
2023-05-06T03:05:24.536Z,96719.17
2023-05-06T03:07:54.991Z,96718.78
2023-05-06T03:10:25.521Z,96719.85
2023-05-06T03:12:55.852Z,96718.41
2023-05-06T03:15:26.426Z,96718.08
2023-05-06T03:17:56.934Z,96722.17
2023-05-06T03:20:28.554Z,96718.66
2023-05-06T03:22:58.786Z,96721.05
2023-05-06T03:25:29.050Z,96720.09
2023-05-06T03:27:59.243Z,96721.92
2023-05-06T03:30:30.108Z,96722.86
2023-05-06T03:33:03.138Z,96725.93
2023-05-06T03:35:34.012Z,96722.57
2023-05-06T03:38:04.637Z,96718.98
2023-05-06T03:40:35.860Z,96713.53
2023-05-06T03:43:07.649Z,96716.88
2023-05-06T03:45:39.044Z,96719.05
2023-05-06T03:48:09.604Z,96716.39
2023-05-06T03:50:40.263Z,96709.71
2023-05-06T03:53:10.564Z,96714.87
2023-05-06T03:55:41.779Z,96715.61
2023-05-06T03:58:12.852Z,96717.35
2023-05-06T04:00:43.072Z,96711.73
2023-05-06T04:03:14.825Z,96711.11
2023-05-06T04:05:46.151Z,96712.98
2023-05-06T04:08:17.060Z,96719.50
2023-05-06T04:10:48.470Z,96719.48
2023-05-06T04:13:19.460Z,96719.14
2023-05-06T04:15:50.465Z,96721.41
2023-05-06T04:18:21.413Z,96719.85
2023-05-06T04:20:51.593Z,96718.88
2023-05-06T04:23:22.901Z,96717.52
2023-05-06T04:25:55.015Z,96710.92
2023-05-06T04:28:25.390Z,96706.95
2023-05-06T04:30:56.272Z,96709.86
2023-05-06T04:33:27.157Z,96710.37
2023-05-06T04:35:58.396Z,96710.89
2023-05-06T04:38:31.677Z,96712.72
2023-05-06T04:41:03.743Z,96709.47
2023-05-06T04:43:34.421Z,96703.73
2023-05-06T04:46:06.439Z,96700.56
2023-05-06T04:48:39.133Z,96701.20
2023-05-06T04:51:09.706Z,96697.48
2023-05-06T04:53:40.981Z,96701.61
2023-05-06T04:56:11.976Z,96700.34
2023-05-06T04:58:46.166Z,96701.25
2023-05-06T05:01:18.928Z,96697.30
2023-05-06T05:03:49.677Z,96692.41
2023-05-06T05:06:20.254Z,96690.33
2023-05-06T05:08:50.773Z,96683.30
2023-05-06T05:11:21.200Z,96683.45
2023-05-06T05:13:51.547Z,96677.13
2023-05-06T05:16:21.936Z,96677.77
2023-05-06T05:18:52.473Z,96676.20
2023-05-06T05:21:23.016Z,96673.38
2023-05-06T05:23:53.360Z,96667.49
2023-05-06T05:26:24.380Z,96672.66
2023-05-06T05:28:54.898Z,96673.52
2023-05-06T05:31:25.643Z,96668.42
2023-05-06T05:33:56.323Z,96661.98
2023-05-06T05:36:27.389Z,96663.19
2023-05-06T05:38:58.210Z,96655.09
2023-05-06T05:41:31.755Z,96649.17
2023-05-06T05:44:00.746Z,96643.73
2023-05-06T05:46:31.586Z,96643.81
2023-05-06T05:49:02.101Z,96642.36
2023-05-06T05:51:32.641Z,96645.48
2023-05-06T05:54:02.928Z,96648.39
2023-05-06T05:56:33.136Z,96651.81
2023-05-06T05:59:03.504Z,96647.35
2023-05-06T06:01:33.695Z,96644.77
2023-05-06T06:04:04.214Z,96643.34
2023-05-06T06:06:35.053Z,96638.80
2023-05-06T06:09:05.612Z,96645.13
2023-05-06T06:11:36.104Z,96649.35
2023-05-06T06:14:08.127Z,96656.03
2023-05-06T06:16:39.910Z,96656.83
2023-05-06T06:19:10.542Z,96652.42
2023-05-06T06:21:40.930Z,96651.25
2023-05-06T06:24:11.252Z,96644.17
2023-05-06T06:26:41.656Z,96637.33
2023-05-06T06:29:12.325Z,96632.44
2023-05-06T06:31:42.611Z,96627.35
2023-05-06T06:34:13.137Z,96628.38
2023-05-06T06:36:45.487Z,96627.45
2023-05-06T06:39:16.150Z,96627.77
2023-05-06T06:41:46.393Z,96628.78
2023-05-06T06:44:16.901Z,96627.91
2023-05-06T06:46:47.534Z,96626.27
2023-05-06T06:49:18.309Z,96621.60
2023-05-06T06:51:49.056Z,96618.03
2023-05-06T06:54:19.382Z,96608.86
2023-05-06T06:56:49.873Z,96608.41
2023-05-06T06:59:20.065Z,96605.08
2023-05-06T07:01:50.231Z,96604.86
2023-05-06T07:04:20.630Z,96608.70
2023-05-06T07:06:50.874Z,96609.44
2023-05-06T07:09:22.055Z,96613.64
2023-05-06T07:11:52.229Z,96610.02
2023-05-06T07:14:23.117Z,96608.92
2023-05-06T07:16:53.597Z,96601.14
2023-05-06T07:19:24.065Z,96605.06
2023-05-06T07:21:54.376Z,96616.23
2023-05-06T07:24:25.136Z,96608.94
2023-05-06T07:26:55.495Z,96612.02
2023-05-06T07:29:26.131Z,96613.93
2023-05-06T07:31:56.367Z,96611.72
2023-05-06T07:34:26.721Z,96614.66
2023-05-06T07:36:57.124Z,96611.71
2023-05-06T07:39:27.512Z,96609.02
2023-05-06T07:41:57.878Z,96606.65
2023-05-06T07:44:28.086Z,96609.00
2023-05-06T07:46:58.355Z,96611.52
2023-05-06T07:49:31.230Z,96606.42
2023-05-06T07:52:01.881Z,96605.62
2023-05-06T07:54:32.475Z,96601.30
2023-05-06T07:57:07.342Z,96601.72
2023-05-06T07:59:37.970Z,96596.14
2023-05-06T08:02:09.173Z,96586.63
2023-05-06T08:04:41.602Z,96588.95
2023-05-06T08:07:12.016Z,96586.91
2023-05-06T08:09:42.530Z,96582.02
2023-05-06T08:12:12.674Z,96579.41
2023-05-06T08:14:42.918Z,96579.73
2023-05-06T08:17:14.506Z,96579.04
2023-05-06T08:19:44.644Z,96578.48
2023-05-06T08:22:16.119Z,96581.61
2023-05-06T08:24:47.172Z,96582.06
2023-05-06T08:27:17.735Z,96581.89
2023-05-06T08:29:48.550Z,96580.08
2023-05-06T08:32:18.775Z,96575.21
2023-05-06T08:34:49.378Z,96570.27
2023-05-06T08:37:19.953Z,96554.85
2023-05-06T08:39:50.422Z,96548.42
2023-05-06T08:42:20.736Z,96550.80
2023-05-06T08:44:53.041Z,96550.59
2023-05-06T08:47:23.623Z,96549.17
2023-05-06T08:49:54.408Z,96547.13
2023-05-06T08:52:24.814Z,96551.73
2023-05-06T08:55:01.048Z,96549.19
2023-05-06T08:57:34.858Z,96541.39
2023-05-06T09:00:10.670Z,96534.59
2023-05-06T09:02:43.130Z,96532.20
2023-05-06T09:05:14.314Z,96528.02
2023-05-06T09:07:44.590Z,96522.55
2023-05-06T09:10:18.054Z,96516.30
2023-05-06T09:12:48.487Z,96514.41
2023-05-06T09:15:20.887Z,96505.17
2023-05-06T09:17:51.770Z,96507.62
2023-05-06T09:20:32.121Z,96502.65
2023-05-06T09:23:08.141Z,96498.36
2023-05-06T09:25:39.796Z,96486.49
2023-05-06T09:28:16.742Z,96474.67
2023-05-06T09:30:48.022Z,96471.13
2023-05-06T09:33:18.405Z,96464.26
2023-05-06T09:35:49.754Z,96450.85
2023-05-06T09:38:21.502Z,96454.41
2023-05-06T09:40:52.089Z,96462.76
2023-05-06T09:43:22.508Z,96468.58
2023-05-06T09:45:52.946Z,96466.18
2023-05-06T09:48:24.132Z,96467.77
2023-05-06T09:50:54.984Z,96471.92
2023-05-06T09:53:25.447Z,96468.63
2023-05-06T09:55:57.487Z,96478.39
2023-05-06T09:58:28.365Z,96471.77
2023-05-06T10:00:59.334Z,96470.13
2023-05-06T10:03:30.085Z,96467.34
2023-05-06T10:06:03.306Z,96462.17
2023-05-06T10:08:35.257Z,96458.79
2023-05-06T10:11:07.293Z,96459.20
2023-05-06T10:13:38.684Z,96457.08
2023-05-06T10:16:10.142Z,96458.39
2023-05-06T10:18:40.652Z,96458.52
2023-05-06T10:21:21.848Z,96460.48
2023-05-06T10:23:59.159Z,96462.19
2023-05-06T10:26:31.485Z,96461.14
2023-05-06T10:29:04.514Z,96458.01
2023-05-06T10:31:36.284Z,96456.90
2023-05-06T10:34:08.976Z,96456.03
2023-05-06T10:36:40.862Z,96452.51
2023-05-06T10:39:13.760Z,96449.23
2023-05-06T10:41:44.066Z,96442.74
2023-05-06T10:44:14.410Z,96443.63
2023-05-06T10:47:00.940Z,96444.89
2023-05-06T10:49:31.479Z,96442.95
2023-05-06T10:52:19.170Z,96439.31
2023-05-06T10:54:55.562Z,96437.19
2023-05-06T10:57:27.292Z,96435.85
2023-05-06T10:59:57.728Z,96435.60
2023-05-06T11:02:31.876Z,96430.95
2023-05-06T11:05:03.472Z,96426.83
2023-05-06T11:07:33.893Z,96426.48
2023-05-06T11:10:07.122Z,96427.23
2023-05-06T11:12:49.133Z,96422.98
2023-05-06T11:15:26.588Z,96415.80
2023-05-06T11:17:57.962Z,96417.99
2023-05-06T11:20:28.264Z,96423.11
2023-05-06T11:22:58.644Z,96422.95
2023-05-06T11:25:42.141Z,96421.96
2023-05-06T11:28:14.379Z,96421.30
2023-05-06T11:30:45.875Z,96425.33
2023-05-06T11:33:19.537Z,96426.29
2023-05-06T11:35:49.946Z,96427.45
2023-05-06T11:38:21.399Z,96422.29
2023-05-06T11:40:51.965Z,96422.89
2023-05-06T11:43:22.439Z,96425.15
2023-05-06T11:45:52.849Z,96423.43
2023-05-06T11:48:23.923Z,96419.67
2023-05-06T11:50:55.441Z,96417.98
2023-05-06T11:53:26.103Z,96417.75
2023-05-06T11:55:56.713Z,96412.78
2023-05-06T11:58:28.164Z,96412.14
2023-05-06T12:00:59.892Z,96407.59
2023-05-06T12:03:31.911Z,96405.66
2023-05-06T12:06:03.387Z,96400.73
2023-05-06T12:08:34.707Z,96402.00
2023-05-06T12:11:07.042Z,96402.77
2023-05-06T12:13:37.963Z,96402.24
2023-05-06T12:16:11.758Z,96400.77
2023-05-06T12:18:42.414Z,96405.20
2023-05-06T12:21:14.286Z,96401.02
2023-05-06T12:23:53.783Z,96400.80
2023-05-06T12:26:24.309Z,96401.23
2023-05-06T12:29:10.647Z,96403.60
2023-05-06T12:31:41.521Z,96401.62
2023-05-06T12:34:11.997Z,96403.86
2023-05-06T12:36:43.906Z,96407.29
2023-05-06T12:39:15.227Z,96408.36
2023-05-06T12:41:46.660Z,96407.60
2023-05-06T12:44:33.798Z,96405.71
2023-05-06T12:47:07.114Z,96412.52
2023-05-06T12:49:49.227Z,96409.92
2023-05-06T12:52:21.347Z,96409.59
2023-05-06T12:54:53.369Z,96408.85
2023-05-06T12:57:23.920Z,96404.48
2023-05-06T12:59:55.963Z,96408.86
2023-05-06T13:02:26.669Z,96414.37
2023-05-06T13:04:58.062Z,96415.52
2023-05-06T13:07:28.462Z,96419.27
2023-05-06T13:10:02.633Z,96421.04
2023-05-06T13:12:34.177Z,96421.65
2023-05-06T13:15:05.135Z,96422.39
2023-05-06T13:17:35.610Z,96422.92
2023-05-06T13:20:07.957Z,96422.70
2023-05-06T13:22:53.210Z,96425.23
2023-05-06T13:25:25.538Z,96424.65
2023-05-06T13:27:56.215Z,96427.04
2023-05-06T13:30:26.806Z,96427.30
2023-05-06T13:32:57.645Z,96429.15
2023-05-06T13:35:28.724Z,96424.54
2023-05-06T13:37:59.094Z,96427.61
2023-05-06T13:40:29.734Z,96432.02
2023-05-06T13:43:00.136Z,96431.75
2023-05-06T13:45:30.760Z,96428.15
2023-05-06T13:48:03.220Z,96427.36
2023-05-06T13:50:35.702Z,96426.74
2023-05-06T13:53:06.346Z,96419.46
2023-05-06T13:55:37.429Z,96421.27
2023-05-06T13:58:08.160Z,96419.60
2023-05-06T14:00:38.781Z,96422.09
2023-05-06T14:03:09.783Z,96420.63
2023-05-06T14:05:40.205Z,96425.34
2023-05-06T14:08:10.759Z,96426.67
2023-05-06T14:10:43.778Z,96429.38
2023-05-06T14:13:14.540Z,96436.41
2023-05-06T14:15:48.603Z,96438.98
2023-05-06T14:18:19.001Z,96444.23
2023-05-06T14:20:49.460Z,96447.16
2023-05-06T14:23:19.765Z,96449.92
2023-05-06T14:25:50.554Z,96448.73
2023-05-06T14:28:21.043Z,96448.20
2023-05-06T14:30:51.826Z,96450.20
2023-05-06T14:33:23.711Z,96447.71
2023-05-06T14:35:54.374Z,96444.14
2023-05-06T14:38:24.942Z,96443.91
2023-05-06T14:40:56.058Z,96440.74
2023-05-06T14:43:26.966Z,96444.59
2023-05-06T14:45:57.242Z,96441.73
2023-05-06T14:48:27.691Z,96437.58
2023-05-06T14:50:58.006Z,96434.79
2023-05-06T14:53:28.754Z,96435.65
2023-05-06T14:55:59.081Z,96430.64
2023-05-06T14:58:29.546Z,96430.83
2023-05-06T15:01:00.017Z,96433.51
2023-05-06T15:03:30.328Z,96430.68
2023-05-06T15:06:00.873Z,96427.39
2023-05-06T15:08:31.240Z,96424.38
2023-05-06T15:11:03.849Z,96426.28
2023-05-06T15:13:34.755Z,96427.29
2023-05-06T15:16:05.710Z,96432.27
2023-05-06T15:18:37.763Z,96435.80
2023-05-06T15:21:08.699Z,96434.87
2023-05-06T15:23:39.411Z,96434.71
2023-05-06T15:26:09.965Z,96441.52
2023-05-06T15:28:41.238Z,96444.81
2023-05-06T15:31:12.671Z,96441.39
2023-05-06T15:33:43.508Z,96444.09
2023-05-06T15:36:14.351Z,96444.95
2023-05-06T15:39:00.342Z,96448.74
2023-05-06T15:41:32.513Z,96457.31
2023-05-06T15:46:36.246Z,96457.64
2023-05-06T15:51:40.496Z,96455.40
2023-05-06T15:54:10.858Z,96454.71
2023-05-06T15:56:42.145Z,96457.20
2023-05-06T15:59:12.787Z,96451.52
2023-05-06T16:02:24.413Z,96452.08
2023-05-06T16:04:33.936Z,96453.84
2023-05-06T16:07:04.687Z,96456.98
2023-05-06T16:09:35.148Z,96460.97
2023-05-06T16:12:06.683Z,96461.50
2023-05-06T16:14:37.402Z,96462.91
2023-05-06T16:17:10.830Z,96460.20
2023-05-06T16:19:41.870Z,96460.50
2023-05-06T16:22:12.905Z,96465.98
2023-05-06T16:24:43.423Z,96471.82
2023-05-06T16:27:16.617Z,96480.38
2023-05-06T16:29:47.181Z,96484.73
2023-05-06T16:32:17.686Z,96488.63
2023-05-06T16:34:47.943Z,96493.35
2023-05-06T16:37:18.300Z,96492.74
2023-05-06T16:39:49.192Z,96498.06
2023-05-06T16:42:19.600Z,96505.61
2023-05-06T16:44:50.533Z,96507.34
2023-05-06T16:47:24.310Z,96511.89
2023-05-06T16:49:55.455Z,96514.87
2023-05-06T16:52:26.541Z,96511.17
2023-05-06T16:55:04.558Z,96516.55
2023-05-06T16:57:35.724Z,96515.65
2023-05-06T17:00:12.224Z,96518.58
2023-05-06T17:02:44.301Z,96519.18
2023-05-06T17:05:15.328Z,96519.67
2023-05-06T17:07:46.128Z,96526.05
2023-05-06T17:10:16.413Z,96530.91
2023-05-06T17:12:47.056Z,96534.58
2023-05-06T17:15:17.640Z,96538.60
2023-05-06T17:17:48.039Z,96533.54
2023-05-06T17:20:20.639Z,96538.14
2023-05-06T17:22:51.671Z,96552.41
2023-05-06T17:25:24.347Z,96557.16
2023-05-06T17:27:55.015Z,96566.38
2023-05-06T17:30:25.740Z,96567.45
2023-05-06T17:32:56.561Z,96568.47
2023-05-06T17:35:27.115Z,96569.98
2023-05-06T17:37:58.508Z,96569.27
2023-05-06T17:40:29.480Z,96572.07
2023-05-06T17:43:00.406Z,96572.41
2023-05-06T17:45:31.949Z,96576.94
2023-05-06T17:48:04.568Z,96577.52
2023-05-06T17:50:36.607Z,96577.45
2023-05-06T17:53:12.066Z,96581.62
2023-05-06T17:55:46.702Z,96584.67
2023-05-06T17:58:19.747Z,96587.91
2023-05-06T18:00:50.435Z,96592.52
2023-05-06T18:03:21.285Z,96594.09
2023-05-06T18:05:53.170Z,96597.05
2023-05-06T18:08:29.522Z,96598.48
2023-05-06T18:11:01.300Z,96595.05
2023-05-06T18:13:34.428Z,96592.67
2023-05-06T18:16:04.953Z,96596.88
2023-05-06T18:18:35.494Z,96602.31
2023-05-06T18:21:06.211Z,96608.88
2023-05-06T18:23:36.438Z,96616.43
2023-05-06T18:26:07.931Z,96616.52
2023-05-06T18:28:40.864Z,96614.15
2023-05-06T18:31:11.315Z,96611.41
2023-05-06T18:33:41.696Z,96602.44
2023-05-06T18:36:15.234Z,96598.52
2023-05-06T18:38:45.781Z,96592.20
2023-05-06T18:41:17.940Z,96591.86
2023-05-06T18:43:48.649Z,96594.42
2023-05-06T18:46:19.049Z,96596.39
2023-05-06T18:48:49.347Z,96592.15
2023-05-06T18:51:20.444Z,96592.55
2023-05-06T18:53:51.951Z,96598.40
2023-05-06T18:56:22.632Z,96596.49
2023-05-06T18:58:52.862Z,96593.77
2023-05-06T19:01:23.542Z,96597.05
2023-05-06T19:03:53.817Z,96603.29
2023-05-06T19:06:24.333Z,96605.33
2023-05-06T19:08:54.670Z,96604.71
2023-05-06T19:11:24.923Z,96601.86
2023-05-06T19:13:55.182Z,96607.36
2023-05-06T19:16:26.669Z,96616.00
2023-05-06T19:18:57.246Z,96622.91
2023-05-06T19:21:28.017Z,96624.50
2023-05-06T19:23:59.560Z,96625.81
2023-05-06T19:26:29.980Z,96630.55
2023-05-06T19:29:00.560Z,96626.67
2023-05-06T19:31:31.894Z,96625.82
2023-05-06T19:34:02.404Z,96630.48
2023-05-06T19:36:35.375Z,96633.27
2023-05-06T19:39:06.199Z,96633.89
2023-05-06T19:41:36.596Z,96631.67
2023-05-06T19:44:07.766Z,96628.74
2023-05-06T19:46:39.104Z,96627.22
2023-05-06T19:49:09.516Z,96627.90
2023-05-06T19:51:39.757Z,96618.10
2023-05-06T19:54:10.127Z,96609.95
2023-05-06T19:56:41.050Z,96630.66
2023-05-06T19:59:11.348Z,96654.94
2023-05-06T20:01:41.622Z,96662.30
2023-05-06T20:04:11.937Z,96658.10
2023-05-06T20:06:42.313Z,96648.77
2023-05-06T20:09:12.661Z,96651.73
2023-05-06T20:11:42.937Z,96654.45
2023-05-06T20:14:13.317Z,96652.23
2023-05-06T20:16:43.730Z,96646.16
2023-05-06T20:19:13.953Z,96647.20
2023-05-06T20:21:44.275Z,96653.77
2023-05-06T20:24:15.255Z,96657.02
2023-05-06T20:26:45.812Z,96657.05
2023-05-06T20:29:17.781Z,96662.14
2023-05-06T20:31:48.698Z,96666.48
2023-05-06T20:34:19.296Z,96669.86
2023-05-06T20:36:49.688Z,96663.42
2023-05-06T20:39:20.130Z,96659.77
2023-05-06T20:41:50.608Z,96658.85
2023-05-06T20:44:21.793Z,96656.64
2023-05-06T20:46:52.438Z,96653.73
2023-05-06T20:49:25.022Z,96654.45
2023-05-06T20:51:56.857Z,96656.94
2023-05-06T20:54:27.396Z,96665.29
2023-05-06T20:56:58.248Z,96667.86
2023-05-06T20:59:29.186Z,96667.64
2023-05-06T21:01:59.898Z,96664.54
2023-05-06T21:04:30.318Z,96664.59
2023-05-06T21:07:00.717Z,96665.98
2023-05-06T21:09:30.929Z,96668.40
2023-05-06T21:12:01.182Z,96675.73
2023-05-06T21:14:31.776Z,96683.92
2023-05-06T21:17:02.120Z,96686.38
2023-05-06T21:19:32.786Z,96683.60
2023-05-06T21:22:02.984Z,96687.48
2023-05-06T21:24:33.228Z,96691.70
2023-05-06T21:27:03.404Z,96690.71
2023-05-06T21:29:33.734Z,96696.83
2023-05-06T21:32:05.023Z,96698.70
2023-05-06T21:34:35.394Z,96698.42
2023-05-06T21:37:06.143Z,96696.61
2023-05-06T21:39:36.653Z,96690.06
2023-05-06T21:42:08.620Z,96683.40
2023-05-06T21:44:39.113Z,96678.52
2023-05-06T21:47:09.588Z,96676.54
2023-05-06T21:49:39.810Z,96673.44
2023-05-06T21:52:10.353Z,96673.55
2023-05-06T21:54:40.943Z,96672.30
2023-05-06T21:57:12.395Z,96675.80
2023-05-06T21:59:42.777Z,96680.60
2023-05-06T22:02:13.012Z,96679.92
2023-05-06T22:04:43.549Z,96678.19
2023-05-06T22:07:14.124Z,96679.88
2023-05-06T22:09:44.497Z,96686.93
2023-05-06T22:12:15.284Z,96692.13
2023-05-06T22:14:45.744Z,96698.88
2023-05-06T22:17:16.181Z,96702.08
2023-05-06T22:19:46.699Z,96706.02
2023-05-06T22:22:17.664Z,96713.25
2023-05-06T22:24:48.819Z,96720.29
2023-05-06T22:27:19.236Z,96721.41
2023-05-06T22:29:49.751Z,96718.96
2023-05-06T22:32:21.347Z,96713.41
2023-05-06T22:34:51.747Z,96714.34
2023-05-06T22:37:22.267Z,96708.75
2023-05-06T22:39:53.071Z,96706.29
2023-05-06T22:42:24.098Z,96705.66
2023-05-06T22:44:54.785Z,96704.38
2023-05-06T22:47:25.140Z,96699.52
2023-05-06T22:49:55.508Z,96689.35
2023-05-06T22:52:25.732Z,96678.80
2023-05-06T22:54:57.051Z,96664.73
2023-05-06T22:57:27.706Z,96654.47
2023-05-06T22:59:58.327Z,96655.27
2023-05-06T23:02:29.284Z,96644.89
2023-05-06T23:05:00.015Z,96646.48
2023-05-06T23:07:30.470Z,96644.39
2023-05-06T23:10:00.684Z,96636.27
2023-05-06T23:12:34.578Z,96629.46
2023-05-06T23:15:05.856Z,96623.85
2023-05-06T23:17:36.177Z,96621.56
2023-05-06T23:20:07.782Z,96613.41
2023-05-06T23:22:38.241Z,96600.16
2023-05-06T23:25:11.636Z,96588.88
2023-05-06T23:27:42.922Z,96595.13
2023-05-06T23:30:14.838Z,96614.16
2023-05-06T23:32:44.970Z,96615.54
2023-05-06T23:35:15.295Z,96622.55
2023-05-06T23:37:45.719Z,96629.54
2023-05-06T23:40:16.684Z,96635.75
2023-05-06T23:42:47.094Z,96628.14
2023-05-06T23:45:18.264Z,96625.14
2023-05-06T23:47:48.654Z,96631.36
2023-05-06T23:50:19.405Z,96636.52
2023-05-06T23:52:49.968Z,96639.10
2023-05-06T23:55:20.676Z,96639.25
2023-05-06T23:57:50.927Z,96630.90
